sensor_id;sensor_type;location;lat;lon;timestamp;pressure;altitude;pressure_sealevel;temperature;humidity
57562;BME280;43397;51.530;5.974;2023-02-15T00:01:35;102516.06;;;4.12;100.00
57562;BME280;43397;51.530;5.974;2023-02-15T00:04:02;102518.75;;;4.14;100.00
57562;BME280;43397;51.530;5.974;2023-02-15T00:06:29;102511.47;;;4.08;100.00
57562;BME280;43397;51.530;5.974;2023-02-15T00:08:55;102528.38;;;4.13;100.00
57562;BME280;43397;51.530;5.974;2023-02-15T00:11:21;102511.00;;;3.98;100.00
57562;BME280;43397;51.530;5.974;2023-02-15T00:13:47;102524.84;;;4.13;100.00
57562;BME280;43397;51.530;5.974;2023-02-15T00:16:13;102511.16;;;4.01;100.00
57562;BME280;43397;51.530;5.974;2023-02-15T00:18:40;102522.28;;;3.95;100.00
57562;BME280;43397;51.530;5.974;2023-02-15T00:21:08;102522.69;;;4.04;100.00
57562;BME280;43397;51.530;5.974;2023-02-15T00:23:36;102515.84;;;4.08;100.00
57562;BME280;43397;51.530;5.974;2023-02-15T00:26:06;102515.44;;;3.99;100.00
57562;BME280;43397;51.530;5.974;2023-02-15T00:28:33;102514.31;;;3.94;100.00
57562;BME280;43397;51.530;5.974;2023-02-15T00:31:06;102513.78;;;3.81;100.00
57562;BME280;43397;51.530;5.974;2023-02-15T00:33:32;102509.25;;;3.79;100.00
57562;BME280;43397;51.530;5.974;2023-02-15T00:36:00;102507.94;;;3.69;100.00
57562;BME280;43397;51.530;5.974;2023-02-15T00:38:27;102511.63;;;3.55;100.00
57562;BME280;43397;51.530;5.974;2023-02-15T00:40:53;102507.06;;;3.50;100.00
57562;BME280;43397;51.530;5.974;2023-02-15T00:43:19;102503.88;;;3.38;100.00
57562;BME280;43397;51.530;5.974;2023-02-15T00:45:45;102507.41;;;3.21;100.00
57562;BME280;43397;51.530;5.974;2023-02-15T00:48:11;102503.19;;;3.06;100.00
57562;BME280;43397;51.530;5.974;2023-02-15T00:50:38;102501.25;;;3.02;100.00
57562;BME280;43397;51.530;5.974;2023-02-15T00:53:07;102510.56;;;3.14;100.00
57562;BME280;43397;51.530;5.974;2023-02-15T00:55:33;102497.88;;;3.23;100.00
57562;BME280;43397;51.530;5.974;2023-02-15T00:57:58;102476.63;;;3.18;100.00
57562;BME280;43397;51.530;5.974;2023-02-15T01:00:24;102492.84;;;3.27;100.00
57562;BME280;43397;51.530;5.974;2023-02-15T01:02:50;102476.94;;;3.06;100.00
57562;BME280;43397;51.530;5.974;2023-02-15T01:05:16;102487.59;;;3.09;100.00
57562;BME280;43397;51.530;5.974;2023-02-15T01:07:42;102494.03;;;2.98;100.00
57562;BME280;43397;51.530;5.974;2023-02-15T01:10:09;102490.41;;;2.78;100.00
57562;BME280;43397;51.530;5.974;2023-02-15T01:12:35;102473.00;;;2.44;100.00
57562;BME280;43397;51.530;5.974;2023-02-15T01:15:01;102492.25;;;2.45;100.00
57562;BME280;43397;51.530;5.974;2023-02-15T01:17:27;102492.38;;;2.30;100.00
57562;BME280;43397;51.530;5.974;2023-02-15T01:19:52;102484.28;;;2.43;100.00
57562;BME280;43397;51.530;5.974;2023-02-15T01:22:18;102494.84;;;2.61;100.00
57562;BME280;43397;51.530;5.974;2023-02-15T01:24:44;102481.63;;;2.60;100.00
57562;BME280;43397;51.530;5.974;2023-02-15T01:27:12;102470.00;;;2.55;100.00
57562;BME280;43397;51.530;5.974;2023-02-15T01:29:38;102482.84;;;2.66;100.00
57562;BME280;43397;51.530;5.974;2023-02-15T01:32:03;102454.84;;;2.49;100.00
57562;BME280;43397;51.530;5.974;2023-02-15T01:34:30;102468.88;;;2.67;100.00
57562;BME280;43397;51.530;5.974;2023-02-15T01:36:55;102464.47;;;2.84;100.00
57562;BME280;43397;51.530;5.974;2023-02-15T01:39:22;102461.72;;;2.81;100.00
57562;BME280;43397;51.530;5.974;2023-02-15T01:41:48;102471.59;;;2.87;100.00
57562;BME280;43397;51.530;5.974;2023-02-15T01:44:50;102464.66;;;2.87;100.00
57562;BME280;43397;51.530;5.974;2023-02-15T01:47:20;102460.34;;;2.89;100.00
57562;BME280;43397;51.530;5.974;2023-02-15T01:49:47;102464.13;;;2.95;100.00
57562;BME280;43397;51.530;5.974;2023-02-15T01:52:16;102459.63;;;2.92;100.00
57562;BME280;43397;51.530;5.974;2023-02-15T01:54:44;102452.41;;;2.88;100.00
57562;BME280;43397;51.530;5.974;2023-02-15T01:57:16;102453.63;;;2.77;100.00
57562;BME280;43397;51.530;5.974;2023-02-15T01:59:46;102451.53;;;2.87;100.00
57562;BME280;43397;51.530;5.974;2023-02-15T02:02:14;102449.38;;;2.80;100.00
57562;BME280;43397;51.530;5.974;2023-02-15T02:04:46;102448.63;;;2.47;100.00
57562;BME280;43397;51.530;5.974;2023-02-15T02:07:16;102447.78;;;2.48;100.00
57562;BME280;43397;51.530;5.974;2023-02-15T02:09:43;102431.38;;;2.52;100.00
57562;BME280;43397;51.530;5.974;2023-02-15T02:12:09;102451.78;;;2.94;100.00
57562;BME280;43397;51.530;5.974;2023-02-15T02:14:36;102435.06;;;2.92;100.00
57562;BME280;43397;51.530;5.974;2023-02-15T02:17:07;102439.31;;;2.89;100.00
57562;BME280;43397;51.530;5.974;2023-02-15T02:20:06;102441.22;;;2.92;100.00
57562;BME280;43397;51.530;5.974;2023-02-15T02:23:15;102433.72;;;2.82;100.00
57562;BME280;43397;51.530;5.974;2023-02-15T02:29:09;102427.50;;;2.62;100.00
57562;BME280;43397;51.530;5.974;2023-02-15T02:31:48;102427.72;;;2.49;100.00
57562;BME280;43397;51.530;5.974;2023-02-15T02:34:26;102425.91;;;2.65;100.00
57562;BME280;43397;51.530;5.974;2023-02-15T02:36:58;102407.81;;;2.36;100.00
57562;BME280;43397;51.530;5.974;2023-02-15T02:39:32;102421.09;;;2.57;100.00
57562;BME280;43397;51.530;5.974;2023-02-15T02:42:03;102423.50;;;2.52;100.00
57562;BME280;43397;51.530;5.974;2023-02-15T02:44:35;102403.47;;;2.36;100.00
57562;BME280;43397;51.530;5.974;2023-02-15T02:47:09;102408.75;;;2.20;100.00
57562;BME280;43397;51.530;5.974;2023-02-15T02:49:40;102410.25;;;2.15;100.00
57562;BME280;43397;51.530;5.974;2023-02-15T02:54:48;102418.56;;;2.06;100.00
57562;BME280;43397;51.530;5.974;2023-02-15T02:57:14;102410.69;;;2.06;100.00
57562;BME280;43397;51.530;5.974;2023-02-15T02:59:42;102407.41;;;2.10;100.00
57562;BME280;43397;51.530;5.974;2023-02-15T03:02:12;102411.47;;;2.21;100.00
57562;BME280;43397;51.530;5.974;2023-02-15T03:04:40;102405.69;;;2.29;100.00
57562;BME280;43397;51.530;5.974;2023-02-15T03:07:11;102390.47;;;2.21;100.00
57562;BME280;43397;51.530;5.974;2023-02-15T03:09:39;102401.81;;;2.38;100.00
57562;BME280;43397;51.530;5.974;2023-02-15T03:12:07;102405.25;;;2.37;100.00
57562;BME280;43397;51.530;5.974;2023-02-15T03:14:34;102395.91;;;2.24;100.00
57562;BME280;43397;51.530;5.974;2023-02-15T03:17:01;102402.59;;;2.01;100.00
57562;BME280;43397;51.530;5.974;2023-02-15T03:19:31;102387.31;;;2.29;100.00
57562;BME280;43397;51.530;5.974;2023-02-15T03:22:03;102381.38;;;2.31;100.00
57562;BME280;43397;51.530;5.974;2023-02-15T03:24:33;102377.03;;;2.15;100.00
57562;BME280;43397;51.530;5.974;2023-02-15T03:27:02;102375.63;;;2.22;100.00
57562;BME280;43397;51.530;5.974;2023-02-15T03:29:30;102382.16;;;2.30;100.00
57562;BME280;43397;51.530;5.974;2023-02-15T03:31:59;102381.84;;;2.24;100.00
57562;BME280;43397;51.530;5.974;2023-02-15T03:34:26;102369.25;;;2.17;100.00
57562;BME280;43397;51.530;5.974;2023-02-15T03:36:57;102371.81;;;2.15;100.00
57562;BME280;43397;51.530;5.974;2023-02-15T03:39:30;102384.31;;;2.03;100.00
57562;BME280;43397;51.530;5.974;2023-02-15T03:42:04;102372.09;;;2.03;100.00
57562;BME280;43397;51.530;5.974;2023-02-15T03:44:38;102382.16;;;1.96;100.00
57562;BME280;43397;51.530;5.974;2023-02-15T03:47:12;102375.44;;;1.83;100.00
57562;BME280;43397;51.530;5.974;2023-02-15T03:49:43;102383.03;;;1.78;100.00
57562;BME280;43397;51.530;5.974;2023-02-15T03:52:11;102372.66;;;1.63;100.00
57562;BME280;43397;51.530;5.974;2023-02-15T03:54:40;102373.38;;;1.77;100.00
57562;BME280;43397;51.530;5.974;2023-02-15T03:57:10;102368.59;;;1.87;100.00
57562;BME280;43397;51.530;5.974;2023-02-15T03:59:35;102368.03;;;1.92;100.00
57562;BME280;43397;51.530;5.974;2023-02-15T04:02:09;102352.41;;;1.77;100.00
57562;BME280;43397;51.530;5.974;2023-02-15T04:04:41;102372.19;;;1.89;100.00
57562;BME280;43397;51.530;5.974;2023-02-15T04:07:09;102367.94;;;1.91;100.00
57562;BME280;43397;51.530;5.974;2023-02-15T04:09:35;102367.47;;;1.81;100.00
57562;BME280;43397;51.530;5.974;2023-02-15T04:12:03;102363.03;;;1.80;100.00
57562;BME280;43397;51.530;5.974;2023-02-15T04:14:29;102364.44;;;1.74;100.00
57562;BME280;43397;51.530;5.974;2023-02-15T04:16:54;102343.66;;;1.60;100.00
57562;BME280;43397;51.530;5.974;2023-02-15T04:19:20;102359.69;;;1.50;100.00
57562;BME280;43397;51.530;5.974;2023-02-15T04:21:46;102360.22;;;1.43;100.00
57562;BME280;43397;51.530;5.974;2023-02-15T04:24:12;102368.13;;;1.61;100.00
57562;BME280;43397;51.530;5.974;2023-02-15T04:26:38;102361.63;;;1.53;100.00
57562;BME280;43397;51.530;5.974;2023-02-15T04:29:05;102360.78;;;1.70;100.00
57562;BME280;43397;51.530;5.974;2023-02-15T04:31:31;102359.56;;;1.47;100.00
57562;BME280;43397;51.530;5.974;2023-02-15T04:33:56;102338.75;;;1.50;100.00
57562;BME280;43397;51.530;5.974;2023-02-15T04:36:22;102356.75;;;1.60;100.00
57562;BME280;43397;51.530;5.974;2023-02-15T04:38:48;102359.38;;;1.77;100.00
57562;BME280;43397;51.530;5.974;2023-02-15T04:41:14;102360.34;;;1.79;100.00
57562;BME280;43397;51.530;5.974;2023-02-15T04:43:40;102337.00;;;1.67;100.00
57562;BME280;43397;51.530;5.974;2023-02-15T04:46:07;102356.81;;;1.78;100.00
57562;BME280;43397;51.530;5.974;2023-02-15T04:48:32;102325.53;;;1.65;100.00
57562;BME280;43397;51.530;5.974;2023-02-15T04:50:58;102352.53;;;1.80;100.00
57562;BME280;43397;51.530;5.974;2023-02-15T04:53:24;102338.75;;;1.67;100.00
57562;BME280;43397;51.530;5.974;2023-02-15T04:55:50;102361.28;;;1.47;100.00
57562;BME280;43397;51.530;5.974;2023-02-15T04:58:15;102361.19;;;1.45;100.00
57562;BME280;43397;51.530;5.974;2023-02-15T05:00:41;102363.34;;;1.36;100.00
57562;BME280;43397;51.530;5.974;2023-02-15T05:03:08;102357.69;;;1.44;100.00
57562;BME280;43397;51.530;5.974;2023-02-15T05:05:34;102358.44;;;1.42;100.00
57562;BME280;43397;51.530;5.974;2023-02-15T05:08:00;102351.13;;;1.36;100.00
57562;BME280;43397;51.530;5.974;2023-02-15T05:10:26;102347.53;;;1.34;100.00
57562;BME280;43397;51.530;5.974;2023-02-15T05:12:51;102345.56;;;1.30;100.00
57562;BME280;43397;51.530;5.974;2023-02-15T05:15:17;102344.91;;;1.51;100.00
57562;BME280;43397;51.530;5.974;2023-02-15T05:17:44;102343.31;;;1.54;100.00
57562;BME280;43397;51.530;5.974;2023-02-15T05:20:12;102341.78;;;1.41;100.00
57562;BME280;43397;51.530;5.974;2023-02-15T05:22:37;102333.03;;;1.57;100.00
57562;BME280;43397;51.530;5.974;2023-02-15T05:25:04;102319.94;;;1.57;100.00
57562;BME280;43397;51.530;5.974;2023-02-15T05:27:29;102332.00;;;1.72;100.00
57562;BME280;43397;51.530;5.974;2023-02-15T05:29:56;102322.81;;;1.80;100.00
57562;BME280;43397;51.530;5.974;2023-02-15T05:32:22;102322.34;;;1.71;100.00
57562;BME280;43397;51.530;5.974;2023-02-15T05:34:47;102324.78;;;1.84;100.00
57562;BME280;43397;51.530;5.974;2023-02-15T05:37:14;102323.88;;;1.83;100.00
57562;BME280;43397;51.530;5.974;2023-02-15T05:39:40;102332.22;;;1.76;100.00
57562;BME280;43397;51.530;5.974;2023-02-15T05:42:06;102329.63;;;1.76;100.00
57562;BME280;43397;51.530;5.974;2023-02-15T05:44:32;102333.09;;;1.59;100.00
57562;BME280;43397;51.530;5.974;2023-02-15T05:46:58;102331.63;;;1.48;100.00
57562;BME280;43397;51.530;5.974;2023-02-15T05:49:24;102299.94;;;1.43;100.00
57562;BME280;43397;51.530;5.974;2023-02-15T05:51:50;102328.66;;;1.74;100.00
57562;BME280;43397;51.530;5.974;2023-02-15T05:54:17;102327.59;;;1.71;100.00
57562;BME280;43397;51.530;5.974;2023-02-15T05:56:42;102313.03;;;1.59;100.00
57562;BME280;43397;51.530;5.974;2023-02-15T05:59:08;102311.84;;;1.20;100.00
57562;BME280;43397;51.530;5.974;2023-02-15T06:01:34;102332.88;;;1.05;100.00
57562;BME280;43397;51.530;5.974;2023-02-15T06:04:00;102336.34;;;0.89;100.00
57562;BME280;43397;51.530;5.974;2023-02-15T06:06:25;102328.25;;;0.85;100.00
57562;BME280;43397;51.530;5.974;2023-02-15T06:08:51;102319.34;;;0.97;100.00
57562;BME280;43397;51.530;5.974;2023-02-15T06:11:18;102333.75;;;1.06;100.00
57562;BME280;43397;51.530;5.974;2023-02-15T06:13:44;102319.13;;;1.09;100.00
57562;BME280;43397;51.530;5.974;2023-02-15T06:16:10;102328.19;;;0.99;100.00
57562;BME280;43397;51.530;5.974;2023-02-15T06:18:35;102338.25;;;1.41;100.00
57562;BME280;43397;51.530;5.974;2023-02-15T06:21:01;102339.44;;;1.46;100.00
57562;BME280;43397;51.530;5.974;2023-02-15T06:23:27;102326.50;;;1.16;100.00
57562;BME280;43397;51.530;5.974;2023-02-15T06:25:53;102334.50;;;1.36;100.00
57562;BME280;43397;51.530;5.974;2023-02-15T06:28:20;102332.28;;;1.43;100.00
57562;BME280;43397;51.530;5.974;2023-02-15T06:30:46;102323.78;;;1.31;100.00
57562;BME280;43397;51.530;5.974;2023-02-15T06:33:12;102318.13;;;1.23;100.00
57562;BME280;43397;51.530;5.974;2023-02-15T06:35:37;102318.72;;;1.18;100.00
57562;BME280;43397;51.530;5.974;2023-02-15T06:38:03;102325.75;;;1.35;100.00
57562;BME280;43397;51.530;5.974;2023-02-15T06:40:29;102326.00;;;1.40;100.00
57562;BME280;43397;51.530;5.974;2023-02-15T06:42:55;102314.06;;;1.29;100.00
57562;BME280;43397;51.530;5.974;2023-02-15T06:45:22;102323.56;;;1.27;100.00
57562;BME280;43397;51.530;5.974;2023-02-15T06:47:47;102334.69;;;1.22;100.00
57562;BME280;43397;51.530;5.974;2023-02-15T06:50:13;102331.97;;;1.21;100.00
57562;BME280;43397;51.530;5.974;2023-02-15T06:52:39;102331.97;;;1.21;100.00
57562;BME280;43397;51.530;5.974;2023-02-15T06:55:06;102318.47;;;1.13;100.00
57562;BME280;43397;51.530;5.974;2023-02-15T06:57:32;102321.59;;;1.22;100.00
57562;BME280;43397;51.530;5.974;2023-02-15T06:59:57;102335.97;;;1.14;100.00
57562;BME280;43397;51.530;5.974;2023-02-15T07:02:25;102325.81;;;1.37;100.00
57562;BME280;43397;51.530;5.974;2023-02-15T07:04:50;102323.84;;;1.33;100.00
57562;BME280;43397;51.530;5.974;2023-02-15T07:07:16;102317.97;;;1.37;100.00
57562;BME280;43397;51.530;5.974;2023-02-15T07:09:42;102316.31;;;1.55;100.00
57562;BME280;43397;51.530;5.974;2023-02-15T07:12:09;102320.72;;;1.73;100.00
57562;BME280;43397;51.530;5.974;2023-02-15T07:14:35;102307.50;;;1.88;100.00
57562;BME280;43397;51.530;5.974;2023-02-15T07:17:02;102312.09;;;2.10;100.00
57562;BME280;43397;51.530;5.974;2023-02-15T07:19:29;102310.06;;;2.22;100.00
57562;BME280;43397;51.530;5.974;2023-02-15T07:21:55;102314.13;;;2.33;100.00
57562;BME280;43397;51.530;5.974;2023-02-15T07:24:21;102298.53;;;2.18;100.00
57562;BME280;43397;51.530;5.974;2023-02-15T07:26:46;102309.91;;;2.19;100.00
57562;BME280;43397;51.530;5.974;2023-02-15T07:29:12;102303.31;;;2.09;100.00
57562;BME280;43397;51.530;5.974;2023-02-15T07:31:38;102301.28;;;2.39;100.00
57562;BME280;43397;51.530;5.974;2023-02-15T07:34:05;102302.41;;;2.62;100.00
57562;BME280;43397;51.530;5.974;2023-02-15T07:36:34;102305.09;;;3.01;100.00
57562;BME280;43397;51.530;5.974;2023-02-15T07:39:00;102298.72;;;3.16;100.00
57562;BME280;43397;51.530;5.974;2023-02-15T07:41:27;102299.34;;;2.91;100.00
57562;BME280;43397;51.530;5.974;2023-02-15T07:43:52;102299.06;;;3.04;100.00
57562;BME280;43397;51.530;5.974;2023-02-15T07:46:18;102300.44;;;2.96;100.00
57562;BME280;43397;51.530;5.974;2023-02-15T07:48:44;102297.41;;;2.86;100.00
57562;BME280;43397;51.530;5.974;2023-02-15T07:51:11;102295.19;;;2.96;100.00
57562;BME280;43397;51.530;5.974;2023-02-15T07:53:39;102288.16;;;3.14;100.00
57562;BME280;43397;51.530;5.974;2023-02-15T07:56:06;102300.28;;;2.73;100.00
57562;BME280;43397;51.530;5.974;2023-02-15T07:58:33;102281.56;;;3.04;100.00
57562;BME280;43397;51.530;5.974;2023-02-15T08:00:59;102290.97;;;2.99;100.00
57562;BME280;43397;51.530;5.974;2023-02-15T08:03:25;102291.25;;;2.86;100.00
57562;BME280;43397;51.530;5.974;2023-02-15T08:05:51;102275.34;;;3.22;100.00
57562;BME280;43397;51.530;5.974;2023-02-15T08:08:20;102284.38;;;3.27;100.00
57562;BME280;43397;51.530;5.974;2023-02-15T08:10:47;102281.16;;;3.34;100.00
57562;BME280;43397;51.530;5.974;2023-02-15T08:13:13;102283.13;;;3.59;100.00
57562;BME280;43397;51.530;5.974;2023-02-15T08:15:39;102267.75;;;3.28;100.00
57562;BME280;43397;51.530;5.974;2023-02-15T08:18:04;102280.28;;;3.55;100.00
57562;BME280;43397;51.530;5.974;2023-02-15T08:20:31;102274.69;;;3.66;100.00
57562;BME280;43397;51.530;5.974;2023-02-15T08:22:57;102274.38;;;4.44;100.00
57562;BME280;43397;51.530;5.974;2023-02-15T08:25:22;102276.69;;;4.37;100.00
57562;BME280;43397;51.530;5.974;2023-02-15T08:27:50;102273.41;;;3.99;100.00
57562;BME280;43397;51.530;5.974;2023-02-15T08:30:16;102273.88;;;4.54;100.00
57562;BME280;43397;51.530;5.974;2023-02-15T08:32:42;102263.78;;;4.43;100.00
57562;BME280;43397;51.530;5.974;2023-02-15T08:35:08;102264.97;;;4.28;100.00
57562;BME280;43397;51.530;5.974;2023-02-15T08:37:34;102258.03;;;4.76;100.00
57562;BME280;43397;51.530;5.974;2023-02-15T08:39:59;102259.00;;;4.78;100.00
57562;BME280;43397;51.530;5.974;2023-02-15T08:42:27;102246.13;;;4.63;100.00
57562;BME280;43397;51.530;5.974;2023-02-15T08:44:54;102248.78;;;4.87;100.00
57562;BME280;43397;51.530;5.974;2023-02-15T08:47:21;102258.44;;;4.64;100.00
57562;BME280;43397;51.530;5.974;2023-02-15T08:49:48;102246.78;;;5.04;100.00
57562;BME280;43397;51.530;5.974;2023-02-15T08:52:14;102260.47;;;5.67;100.00
57562;BME280;43397;51.530;5.974;2023-02-15T08:54:41;102263.44;;;5.51;100.00
57562;BME280;43397;51.530;5.974;2023-02-15T08:57:06;102260.38;;;5.64;100.00
57562;BME280;43397;51.530;5.974;2023-02-15T08:59:32;102262.44;;;5.73;100.00
57562;BME280;43397;51.530;5.974;2023-02-15T09:02:00;102249.69;;;5.87;100.00
57562;BME280;43397;51.530;5.974;2023-02-15T09:04:26;102255.22;;;6.20;100.00
57562;BME280;43397;51.530;5.974;2023-02-15T09:06:52;102248.16;;;6.19;100.00
57562;BME280;43397;51.530;5.974;2023-02-15T09:09:18;102256.91;;;6.45;100.00
57562;BME280;43397;51.530;5.974;2023-02-15T09:11:47;102239.84;;;6.34;100.00
57562;BME280;43397;51.530;5.974;2023-02-15T09:14:14;102250.63;;;6.42;100.00
57562;BME280;43397;51.530;5.974;2023-02-15T09:16:42;102243.69;;;7.04;100.00
57562;BME280;43397;51.530;5.974;2023-02-15T09:19:09;102233.19;;;7.07;100.00
57562;BME280;43397;51.530;5.974;2023-02-15T09:21:36;102252.00;;;6.88;100.00
57562;BME280;43397;51.530;5.974;2023-02-15T09:24:06;102244.13;;;6.89;100.00
57562;BME280;43397;51.530;5.974;2023-02-15T09:26:35;102250.69;;;7.02;100.00
57562;BME280;43397;51.530;5.974;2023-02-15T09:29:03;102245.13;;;7.91;100.00
57562;BME280;43397;51.530;5.974;2023-02-15T09:31:30;102238.19;;;7.96;99.25
57562;BME280;43397;51.530;5.974;2023-02-15T09:33:58;102238.69;;;7.81;96.82
57562;BME280;43397;51.530;5.974;2023-02-15T09:36:26;102242.16;;;7.79;97.13
57562;BME280;43397;51.530;5.974;2023-02-15T09:38:55;102241.03;;;8.04;96.49
57562;BME280;43397;51.530;5.974;2023-02-15T09:41:47;102254.69;;;8.21;97.03
57562;BME280;43397;51.530;5.974;2023-02-15T09:44:23;102248.28;;;8.49;94.18
57562;BME280;43397;51.530;5.974;2023-02-15T09:47:12;102249.28;;;7.81;95.16
57562;BME280;43397;51.530;5.974;2023-02-15T09:49:49;102245.09;;;7.90;95.01
57562;BME280;43397;51.530;5.974;2023-02-15T09:52:33;102229.72;;;7.75;95.63
57562;BME280;43397;51.530;5.974;2023-02-15T09:55:12;102235.28;;;8.58;96.57
57562;BME280;43397;51.530;5.974;2023-02-15T09:57:47;102241.38;;;8.97;90.13
57562;BME280;43397;51.530;5.974;2023-02-15T10:00:24;102222.81;;;8.97;90.19
57562;BME280;43397;51.530;5.974;2023-02-15T10:03:16;102233.81;;;8.73;90.92
57562;BME280;43397;51.530;5.974;2023-02-15T10:05:55;102219.97;;;8.88;92.36
57562;BME280;43397;51.530;5.974;2023-02-15T10:08:40;102216.00;;;8.65;89.42
57562;BME280;43397;51.530;5.974;2023-02-15T10:11:15;102226.47;;;9.03;87.07
57562;BME280;43397;51.530;5.974;2023-02-15T10:13:47;102247.25;;;9.72;86.96
57562;BME280;43397;51.530;5.974;2023-02-15T10:16:22;102237.03;;;9.96;84.33
57562;BME280;43397;51.530;5.974;2023-02-15T10:18:55;102235.00;;;9.81;82.11
57562;BME280;43397;51.530;5.974;2023-02-15T10:21:39;102224.09;;;9.16;84.67
57562;BME280;43397;51.530;5.974;2023-02-15T10:24:14;102225.34;;;9.35;84.46
57562;BME280;43397;51.530;5.974;2023-02-15T10:26:48;102232.97;;;9.66;87.71
57562;BME280;43397;51.530;5.974;2023-02-15T10:29:22;102231.59;;;9.87;82.14
57562;BME280;43397;51.530;5.974;2023-02-15T10:31:55;102221.06;;;9.93;82.06
57562;BME280;43397;51.530;5.974;2023-02-15T10:34:29;102224.03;;;10.15;86.27
57562;BME280;43397;51.530;5.974;2023-02-15T10:40:04;102199.09;;;10.64;82.09
57562;BME280;43397;51.530;5.974;2023-02-15T10:42:42;102225.69;;;10.64;78.06
57562;BME280;43397;51.530;5.974;2023-02-15T10:45:21;102214.13;;;10.61;78.70
57562;BME280;43397;51.530;5.974;2023-02-15T10:48:29;102209.28;;;10.31;78.19
57562;BME280;43397;51.530;5.974;2023-02-15T10:51:01;102213.75;;;11.02;75.84
57562;BME280;43397;51.530;5.974;2023-02-15T10:53:47;102216.25;;;10.89;76.08
57562;BME280;43397;51.530;5.974;2023-02-15T10:56:20;102208.13;;;11.57;74.94
57562;BME280;43397;51.530;5.974;2023-02-15T10:59:04;102213.91;;;12.04;75.08
57562;BME280;43397;51.530;5.974;2023-02-15T11:01:36;102209.03;;;12.95;71.78
57562;BME280;43397;51.530;5.974;2023-02-15T11:04:31;102208.56;;;12.07;67.83
57562;BME280;43397;51.530;5.974;2023-02-15T11:07:02;102219.38;;;12.27;68.03
57562;BME280;43397;51.530;5.974;2023-02-15T11:09:46;102202.50;;;12.28;67.26
57562;BME280;43397;51.530;5.974;2023-02-15T11:12:18;102211.47;;;12.43;66.85
57562;BME280;43397;51.530;5.974;2023-02-15T11:14:49;102189.56;;;13.24;68.03
57562;BME280;43397;51.530;5.974;2023-02-15T11:17:21;102205.69;;;13.53;63.37
57562;BME280;43397;51.530;5.974;2023-02-15T11:19:55;102189.22;;;12.36;65.60
57562;BME280;43397;51.530;5.974;2023-02-15T11:22:24;102195.31;;;12.18;66.56
57562;BME280;43397;51.530;5.974;2023-02-15T11:24:50;102195.34;;;12.26;67.24
57562;BME280;43397;51.530;5.974;2023-02-15T11:27:20;102191.34;;;13.15;67.81
57562;BME280;43397;51.530;5.974;2023-02-15T11:29:53;102178.84;;;13.10;64.20
57562;BME280;43397;51.530;5.974;2023-02-15T11:32:23;102170.94;;;13.90;66.11
57562;BME280;43397;51.530;5.974;2023-02-15T11:34:54;102161.94;;;14.34;63.35
57562;BME280;43397;51.530;5.974;2023-02-15T11:37:27;102168.09;;;14.68;57.82
57562;BME280;43397;51.530;5.974;2023-02-15T11:39:54;102169.81;;;14.81;57.86
57562;BME280;43397;51.530;5.974;2023-02-15T11:42:23;102160.50;;;15.47;58.16
57562;BME280;43397;51.530;5.974;2023-02-15T11:44:56;102149.00;;;15.31;54.23
57562;BME280;43397;51.530;5.974;2023-02-15T11:47:26;102165.41;;;14.73;55.82
57562;BME280;43397;51.530;5.974;2023-02-15T11:49:51;102154.22;;;15.48;55.92
57562;BME280;43397;51.530;5.974;2023-02-15T11:52:19;102149.25;;;14.94;56.52
57562;BME280;43397;51.530;5.974;2023-02-15T11:54:47;102148.13;;;15.29;54.67
57562;BME280;43397;51.530;5.974;2023-02-15T11:57:17;102124.34;;;15.96;52.58
57562;BME280;43397;51.530;5.974;2023-02-15T11:59:51;102131.28;;;15.09;50.86
57562;BME280;43397;51.530;5.974;2023-02-15T12:02:21;102129.13;;;15.58;51.56
57562;BME280;43397;51.530;5.974;2023-02-15T12:04:51;102139.91;;;15.52;51.89
57562;BME280;43397;51.530;5.974;2023-02-15T12:07:22;102139.28;;;15.18;54.71
57562;BME280;43397;51.530;5.974;2023-02-15T12:09:53;102126.50;;;15.54;53.07
57562;BME280;43397;51.530;5.974;2023-02-15T12:12:24;102132.59;;;15.76;51.28
57562;BME280;43397;51.530;5.974;2023-02-15T12:14:53;102136.88;;;15.97;50.45
57562;BME280;43397;51.530;5.974;2023-02-15T12:17:21;102123.47;;;15.94;50.57
57562;BME280;43397;51.530;5.974;2023-02-15T12:19:49;102115.94;;;17.01;48.08
57562;BME280;43397;51.530;5.974;2023-02-15T12:22:24;102106.06;;;16.33;48.43
57562;BME280;43397;51.530;5.974;2023-02-15T12:24:52;102114.16;;;16.98;47.22
57562;BME280;43397;51.530;5.974;2023-02-15T12:27:21;102108.88;;;17.48;45.37
57562;BME280;43397;51.530;5.974;2023-02-15T12:29:52;102098.25;;;17.42;46.72
57562;BME280;43397;51.530;5.974;2023-02-15T12:32:22;102087.19;;;17.59;44.72
57562;BME280;43397;51.530;5.974;2023-02-15T12:34:50;102094.81;;;18.74;42.88
57562;BME280;43397;51.530;5.974;2023-02-15T12:37:19;102084.69;;;18.01;43.35
57562;BME280;43397;51.530;5.974;2023-02-15T12:39:52;102076.44;;;18.52;41.59
57562;BME280;43397;51.530;5.974;2023-02-15T12:42:18;102076.44;;;18.10;42.73
57562;BME280;43397;51.530;5.974;2023-02-15T12:44:55;102089.19;;;19.23;41.21
57562;BME280;43397;51.530;5.974;2023-02-15T12:47:22;102091.50;;;20.07;38.96
57562;BME280;43397;51.530;5.974;2023-02-15T12:50:13;102075.97;;;20.16;38.31
57562;BME280;43397;51.530;5.974;2023-02-15T12:52:43;102063.72;;;18.59;39.57
57562;BME280;43397;51.530;5.974;2023-02-15T12:55:19;102070.44;;;20.20;38.09
57562;BME280;43397;51.530;5.974;2023-02-15T12:57:46;102071.66;;;20.71;36.46
57562;BME280;43397;51.530;5.974;2023-02-15T13:00:27;102085.25;;;21.24;35.39
57562;BME280;43397;51.530;5.974;2023-02-15T13:02:55;102050.81;;;19.84;37.66
57562;BME280;43397;51.530;5.974;2023-02-15T13:05:26;102069.91;;;20.07;37.79
57562;BME280;43397;51.530;5.974;2023-02-15T13:07:57;102075.38;;;20.35;37.12
57562;BME280;43397;51.530;5.974;2023-02-15T13:10:26;102070.94;;;21.21;35.96